sensor_id;sensor_type;location;lat;lon;timestamp;pressure;altitude;pressure_sealevel;temperature;humidity
38033;BME280;23841;48.524;1.342;2024-01-15T00:01:44;98635.91;;;6.27;53.31
38033;BME280;23841;48.524;1.342;2024-01-15T00:04:09;98628.00;;;6.26;53.09
38033;BME280;23841;48.524;1.342;2024-01-15T00:06:35;98614.84;;;6.26;52.98
38033;BME280;23841;48.524;1.342;2024-01-15T00:09:00;98618.38;;;6.23;53.06
38033;BME280;23841;48.524;1.342;2024-01-15T00:11:26;98621.00;;;6.26;53.16
38033;BME280;23841;48.524;1.342;2024-01-15T00:13:52;98615.72;;;6.26;53.11
38033;BME280;23841;48.524;1.342;2024-01-15T00:16:17;98619.22;;;6.27;53.07
38033;BME280;23841;48.524;1.342;2024-01-15T00:18:42;98608.72;;;6.24;53.05
38033;BME280;23841;48.524;1.342;2024-01-15T00:21:08;98611.34;;;6.25;53.14
38033;BME280;23841;48.524;1.342;2024-01-15T00:23:33;98609.53;;;6.27;53.06
38033;BME280;23841;48.524;1.342;2024-01-15T00:25:58;98606.88;;;6.27;52.94
38033;BME280;23841;48.524;1.342;2024-01-15T00:28:24;98611.31;;;6.27;53.17
38033;BME280;23841;48.524;1.342;2024-01-15T00:30:49;98608.66;;;6.27;53.22
38033;BME280;23841;48.524;1.342;2024-01-15T00:33:15;98609.53;;;6.27;52.97
38033;BME280;23841;48.524;1.342;2024-01-15T00:35:40;98573.75;;;6.09;52.98
38033;BME280;23841;48.524;1.342;2024-01-15T00:38:06;98607.78;;;6.28;53.20
38033;BME280;23841;48.524;1.342;2024-01-15T00:40:32;98599.88;;;6.28;53.01
38033;BME280;23841;48.524;1.342;2024-01-15T00:42:58;98595.47;;;6.27;53.05
38033;BME280;23841;48.524;1.342;2024-01-15T00:45:23;98592.84;;;6.27;53.05
38033;BME280;23841;48.524;1.342;2024-01-15T00:47:49;98597.22;;;6.28;53.03
38033;BME280;23841;48.524;1.342;2024-01-15T00:50:14;98591.06;;;6.27;52.98
38033;BME280;23841;48.524;1.342;2024-01-15T00:52:40;98587.56;;;6.27;52.99
38033;BME280;23841;48.524;1.342;2024-01-15T00:55:05;98579.72;;;6.24;52.89
38033;BME280;23841;48.524;1.342;2024-01-15T00:57:31;98582.25;;;6.28;52.90
38033;BME280;23841;48.524;1.342;2024-01-15T00:59:56;98580.47;;;6.29;52.79
38033;BME280;23841;48.524;1.342;2024-01-15T01:02:22;98584.88;;;6.30;52.95
38033;BME280;23841;48.524;1.342;2024-01-15T01:04:47;98571.69;;;6.30;52.94
38033;BME280;23841;48.524;1.342;2024-01-15T01:07:13;98575.22;;;6.29;52.75
38033;BME280;23841;48.524;1.342;2024-01-15T01:09:38;98575.22;;;6.29;52.78
38033;BME280;23841;48.524;1.342;2024-01-15T01:12:04;98569.94;;;6.29;52.90
38033;BME280;23841;48.524;1.342;2024-01-15T01:14:29;98565.56;;;6.29;52.81
38033;BME280;23841;48.524;1.342;2024-01-15T01:16:55;98566.41;;;6.30;52.97
38033;BME280;23841;48.524;1.342;2024-01-15T01:19:20;98553.25;;;6.28;52.84
38033;BME280;23841;48.524;1.342;2024-01-15T01:21:46;98553.25;;;6.28;52.64
38033;BME280;23841;48.524;1.342;2024-01-15T01:24:11;98566.41;;;6.30;52.70
38033;BME280;23841;48.524;1.342;2024-01-15T01:26:36;98561.19;;;6.27;52.68
38033;BME280;23841;48.524;1.342;2024-01-15T01:29:03;98559.38;;;6.30;52.69
38033;BME280;23841;48.524;1.342;2024-01-15T01:31:29;98560.28;;;6.29;52.66
38033;BME280;23841;48.524;1.342;2024-01-15T01:33:54;98559.38;;;6.29;52.84
38033;BME280;23841;48.524;1.342;2024-01-15T01:36:20;98554.09;;;6.29;52.63
38033;BME280;23841;48.524;1.342;2024-01-15T01:38:45;98562.03;;;6.29;52.64
38033;BME280;23841;48.524;1.342;2024-01-15T01:41:11;98556.75;;;6.29;52.75
38033;BME280;23841;48.524;1.342;2024-01-15T01:43:36;98564.66;;;6.29;52.73
38033;BME280;23841;48.524;1.342;2024-01-15T01:46:02;98550.63;;;6.27;52.56
38033;BME280;23841;48.524;1.342;2024-01-15T01:48:29;98548.84;;;6.29;52.77
38033;BME280;23841;48.524;1.342;2024-01-15T01:50:58;98552.38;;;6.28;52.63
38033;BME280;23841;48.524;1.342;2024-01-15T01:53:28;98549.75;;;6.28;52.65
38033;BME280;23841;48.524;1.342;2024-01-15T01:55:56;98555.91;;;6.27;52.91
38033;BME280;23841;48.524;1.342;2024-01-15T01:58:22;98548.88;;;6.26;52.74
38033;BME280;23841;48.524;1.342;2024-01-15T02:00:48;98557.66;;;6.28;52.64
38033;BME280;23841;48.524;1.342;2024-01-15T02:03:15;98550.63;;;6.27;52.69
38033;BME280;23841;48.524;1.342;2024-01-15T02:05:42;98554.13;;;6.27;52.75
38033;BME280;23841;48.524;1.342;2024-01-15T02:08:09;98545.41;;;6.24;52.78
38033;BME280;23841;48.524;1.342;2024-01-15T02:10:35;98548.00;;;6.27;52.84
38033;BME280;23841;48.524;1.342;2024-01-15T02:13:00;98538.31;;;6.27;52.80
38033;BME280;23841;48.524;1.342;2024-01-15T02:15:26;98535.66;;;6.27;52.81
38033;BME280;23841;48.524;1.342;2024-01-15T02:18:02;98534.75;;;6.30;52.76
38033;BME280;23841;48.524;1.342;2024-01-15T02:20:29;98521.59;;;6.28;52.84
38033;BME280;23841;48.524;1.342;2024-01-15T02:23:22;98512.81;;;6.28;52.97
38033;BME280;23841;48.524;1.342;2024-01-15T02:25:47;98508.44;;;6.27;52.79
38033;BME280;23841;48.524;1.342;2024-01-15T02:28:15;98513.72;;;6.27;53.02
38033;BME280;23841;48.524;1.342;2024-01-15T02:30:42;98517.19;;;6.29;52.97
38033;BME280;23841;48.524;1.342;2024-01-15T02:33:09;98505.78;;;6.27;52.89
38033;BME280;23841;48.524;1.342;2024-01-15T02:35:35;98504.91;;;6.28;53.03
38033;BME280;23841;48.524;1.342;2024-01-15T02:38:05;98504.03;;;6.27;52.87
38033;BME280;23841;48.524;1.342;2024-01-15T02:40:31;98500.53;;;6.27;53.04
38033;BME280;23841;48.524;1.342;2024-01-15T02:42:57;98487.34;;;6.27;52.79
38033;BME280;23841;48.524;1.342;2024-01-15T02:45:23;98498.75;;;6.27;52.97
38033;BME280;23841;48.524;1.342;2024-01-15T02:47:49;98497.88;;;6.27;52.93
38033;BME280;23841;48.524;1.342;2024-01-15T02:50:14;98487.31;;;6.28;52.88
38033;BME280;23841;48.524;1.342;2024-01-15T02:52:41;98483.81;;;6.28;52.93
38033;BME280;23841;48.524;1.342;2024-01-15T02:55:07;98476.81;;;6.25;52.95
38033;BME280;23841;48.524;1.342;2024-01-15T02:57:33;98481.19;;;6.26;52.99
38033;BME280;23841;48.524;1.342;2024-01-15T02:59:58;98475.94;;;6.26;52.95
38033;BME280;23841;48.524;1.342;2024-01-15T03:02:24;98484.66;;;6.28;53.10
38033;BME280;23841;48.524;1.342;2024-01-15T03:04:49;98488.19;;;6.27;52.97
38033;BME280;23841;48.524;1.342;2024-01-15T03:07:15;98489.97;;;6.27;52.88
38033;BME280;23841;48.524;1.342;2024-01-15T03:09:40;98493.47;;;6.27;53.01
38033;BME280;23841;48.524;1.342;2024-01-15T03:12:07;98495.22;;;6.28;53.12
38033;BME280;23841;48.524;1.342;2024-01-15T03:14:32;98506.63;;;6.29;52.96
38033;BME280;23841;48.524;1.342;2024-01-15T03:16:57;98498.75;;;6.27;52.86
38033;BME280;23841;48.524;1.342;2024-01-15T03:19:23;98499.63;;;6.28;52.85
38033;BME280;23841;48.524;1.342;2024-01-15T03:21:48;98500.50;;;6.28;52.85
38033;BME280;23841;48.524;1.342;2024-01-15T03:24:14;98487.34;;;6.27;52.98
38033;BME280;23841;48.524;1.342;2024-01-15T03:26:39;98486.41;;;6.29;52.88
38033;BME280;23841;48.524;1.342;2024-01-15T03:29:05;98482.88;;;6.29;52.94
38033;BME280;23841;48.524;1.342;2024-01-15T03:31:31;98485.53;;;6.29;52.88
38033;BME280;23841;48.524;1.342;2024-01-15T03:33:56;98481.13;;;6.29;52.82
38033;BME280;23841;48.524;1.342;2024-01-15T03:36:22;98474.97;;;6.29;52.93
38033;BME280;23841;48.524;1.342;2024-01-15T03:38:47;98473.28;;;6.25;53.00
38033;BME280;23841;48.524;1.342;2024-01-15T03:41:13;98465.34;;;6.28;53.06
38033;BME280;23841;48.524;1.342;2024-01-15T03:43:38;98468.81;;;6.30;52.96
38033;BME280;23841;48.524;1.342;2024-01-15T03:46:05;98460.03;;;6.29;52.91
38033;BME280;23841;48.524;1.342;2024-01-15T03:48:30;98445.19;;;6.24;53.00
38033;BME280;23841;48.524;1.342;2024-01-15T03:50:56;98453.06;;;6.27;52.98
38033;BME280;23841;48.524;1.342;2024-01-15T03:53:21;98461.78;;;6.29;52.88
38033;BME280;23841;48.524;1.342;2024-01-15T03:55:47;98449.53;;;6.28;53.00
38033;BME280;23841;48.524;1.342;2024-01-15T03:58:12;98440.72;;;6.27;52.90
38033;BME280;23841;48.524;1.342;2024-01-15T04:00:40;98438.03;;;6.29;53.00
38033;BME280;23841;48.524;1.342;2024-01-15T04:03:05;98442.47;;;6.28;53.05
38033;BME280;23841;48.524;1.342;2024-01-15T04:05:31;98431.03;;;6.29;52.90
38033;BME280;23841;48.524;1.342;2024-01-15T04:07:56;98426.63;;;6.28;53.05
38033;BME280;23841;48.524;1.342;2024-01-15T04:10:22;98424.88;;;6.29;53.06
38033;BME280;23841;48.524;1.342;2024-01-15T04:12:47;98418.75;;;6.27;52.93
38033;BME280;23841;48.524;1.342;2024-01-15T04:15:13;98415.31;;;6.22;53.12
38033;BME280;23841;48.524;1.342;2024-01-15T04:17:38;98427.50;;;6.29;53.07
38033;BME280;23841;48.524;1.342;2024-01-15T04:20:04;98429.25;;;6.30;53.18
38033;BME280;23841;48.524;1.342;2024-01-15T04:22:31;98428.41;;;6.28;52.98
38033;BME280;23841;48.524;1.342;2024-01-15T04:24:56;98427.50;;;6.29;52.98
38033;BME280;23841;48.524;1.342;2024-01-15T04:27:22;98436.34;;;6.28;53.09
38033;BME280;23841;48.524;1.342;2024-01-15T04:29:47;98432.78;;;6.29;53.11
38033;BME280;23841;48.524;1.342;2024-01-15T04:32:13;98450.34;;;6.30;53.01
38033;BME280;23841;48.524;1.342;2024-01-15T04:34:38;98443.31;;;6.29;53.08
38033;BME280;23841;48.524;1.342;2024-01-15T04:37:03;98452.09;;;6.31;53.03
38033;BME280;23841;48.524;1.342;2024-01-15T04:39:29;98449.50;;;6.29;53.05
38033;BME280;23841;48.524;1.342;2024-01-15T04:41:54;98450.34;;;6.30;53.14
38033;BME280;23841;48.524;1.342;2024-01-15T04:44:20;98455.63;;;6.30;53.11
38033;BME280;23841;48.524;1.342;2024-01-15T04:46:45;98453.88;;;6.29;53.18
38033;BME280;23841;48.524;1.342;2024-01-15T04:49:11;98441.59;;;6.28;53.10
38033;BME280;23841;48.524;1.342;2024-01-15T04:51:37;98431.91;;;6.28;53.10
38033;BME280;23841;48.524;1.342;2024-01-15T04:54:03;98429.28;;;6.28;53.12
38033;BME280;23841;48.524;1.342;2024-01-15T04:56:28;98426.69;;;6.25;53.16
38033;BME280;23841;48.524;1.342;2024-01-15T04:58:53;98434.50;;;6.31;53.12
38033;BME280;23841;48.524;1.342;2024-01-15T05:01:19;98430.13;;;6.29;53.32
38033;BME280;23841;48.524;1.342;2024-01-15T05:03:44;98423.97;;;6.30;53.08
38033;BME280;23841;48.524;1.342;2024-01-15T05:06:10;98422.22;;;6.29;53.08
38033;BME280;23841;48.524;1.342;2024-01-15T05:08:35;98431.88;;;6.30;53.11
38033;BME280;23841;48.524;1.342;2024-01-15T05:11:00;98430.13;;;6.30;52.96
38033;BME280;23841;48.524;1.342;2024-01-15T05:13:26;98434.53;;;6.30;53.09
38033;BME280;23841;48.524;1.342;2024-01-15T05:15:52;98433.63;;;6.31;53.21
38033;BME280;23841;48.524;1.342;2024-01-15T05:18:17;98424.81;;;6.32;53.20
38033;BME280;23841;48.524;1.342;2024-01-15T05:20:42;98423.91;;;6.33;53.14
38033;BME280;23841;48.524;1.342;2024-01-15T05:23:08;98418.63;;;6.33;53.27
38033;BME280;23841;48.524;1.342;2024-01-15T05:25:34;98415.16;;;6.31;53.10
38033;BME280;23841;48.524;1.342;2024-01-15T05:27:59;98415.16;;;6.31;53.24
38033;BME280;23841;48.524;1.342;2024-01-15T05:30:25;98411.63;;;6.32;53.21
38033;BME280;23841;48.524;1.342;2024-01-15T05:32:50;98409.91;;;6.31;53.30
38033;BME280;23841;48.524;1.342;2024-01-15T05:35:16;98401.97;;;6.31;53.20
38033;BME280;23841;48.524;1.342;2024-01-15T05:37:44;98399.34;;;6.31;53.21
38033;BME280;23841;48.524;1.342;2024-01-15T05:40:11;98398.50;;;6.30;53.23
38033;BME280;23841;48.524;1.342;2024-01-15T05:42:38;98395.84;;;6.30;53.14
38033;BME280;23841;48.524;1.342;2024-01-15T05:45:04;98401.97;;;6.31;53.28
38033;BME280;23841;48.524;1.342;2024-01-15T05:47:30;98387.91;;;6.32;53.45
38033;BME280;23841;48.524;1.342;2024-01-15T05:49:56;98402.88;;;6.30;53.31
38033;BME280;23841;48.524;1.342;2024-01-15T05:52:22;98410.75;;;6.31;53.42
38033;BME280;23841;48.524;1.342;2024-01-15T05:54:49;98409.84;;;6.32;53.29
38033;BME280;23841;48.524;1.342;2024-01-15T05:57:14;98410.75;;;6.31;53.31
38033;BME280;23841;48.524;1.342;2024-01-15T05:59:40;98423.91;;;6.33;53.18
38033;BME280;23841;48.524;1.342;2024-01-15T06:02:05;98434.47;;;6.33;53.40
38033;BME280;23841;48.524;1.342;2024-01-15T06:04:31;98421.28;;;6.33;53.29
38033;BME280;23841;48.524;1.342;2024-01-15T06:06:56;98420.44;;;6.31;53.15
38033;BME280;23841;48.524;1.342;2024-01-15T06:09:21;98425.72;;;6.31;53.41
38033;BME280;23841;48.524;1.342;2024-01-15T06:11:47;98424.78;;;6.34;53.12
38033;BME280;23841;48.524;1.342;2024-01-15T06:14:12;98429.19;;;6.33;53.21
38033;BME280;23841;48.524;1.342;2024-01-15T06:16:37;98420.53;;;6.26;53.28
38033;BME280;23841;48.524;1.342;2024-01-15T06:19:03;98422.19;;;6.32;53.33
38033;BME280;23841;48.524;1.342;2024-01-15T06:21:28;98424.81;;;6.32;53.25
38033;BME280;23841;48.524;1.342;2024-01-15T06:23:54;98417.78;;;6.32;53.25
38033;BME280;23841;48.524;1.342;2024-01-15T06:26:22;98406.41;;;6.29;53.41
38033;BME280;23841;48.524;1.342;2024-01-15T06:28:47;98411.63;;;6.32;53.37
38033;BME280;23841;48.524;1.342;2024-01-15T06:31:13;98410.72;;;6.33;53.52
38033;BME280;23841;48.524;1.342;2024-01-15T06:33:38;98400.22;;;6.30;53.54
38033;BME280;23841;48.524;1.342;2024-01-15T06:36:04;98406.41;;;6.30;53.34
38033;BME280;23841;48.524;1.342;2024-01-15T06:38:30;98401.09;;;6.32;53.51
38033;BME280;23841;48.524;1.342;2024-01-15T06:40:56;98401.13;;;6.30;53.53
38033;BME280;23841;48.524;1.342;2024-01-15T06:43:21;98412.50;;;6.32;53.50
38033;BME280;23841;48.524;1.342;2024-01-15T06:45:47;98409.91;;;6.31;53.51
38033;BME280;23841;48.524;1.342;2024-01-15T06:48:12;98409.84;;;6.32;53.58
38033;BME280;23841;48.524;1.342;2024-01-15T06:50:40;98410.78;;;6.30;53.62
38033;BME280;23841;48.524;1.342;2024-01-15T06:53:05;98416.03;;;6.31;53.48
38033;BME280;23841;48.524;1.342;2024-01-15T06:55:31;98411.63;;;6.32;53.48
38033;BME280;23841;48.524;1.342;2024-01-15T06:57:56;98410.72;;;6.33;53.50
38033;BME280;23841;48.524;1.342;2024-01-15T07:00:21;98412.50;;;6.32;53.55
38033;BME280;23841;48.524;1.342;2024-01-15T07:02:47;98412.50;;;6.32;53.45
38033;BME280;23841;48.524;1.342;2024-01-15T07:05:12;98423.91;;;6.33;53.54
38033;BME280;23841;48.524;1.342;2024-01-15T07:07:38;98418.66;;;6.31;53.70
38033;BME280;23841;48.524;1.342;2024-01-15T07:10:04;98416.91;;;6.32;53.52
38033;BME280;23841;48.524;1.342;2024-01-15T07:12:30;98435.34;;;6.34;53.49
38033;BME280;23841;48.524;1.342;2024-01-15T07:14:56;98437.06;;;6.35;53.53
38033;BME280;23841;48.524;1.342;2024-01-15T07:17:22;98441.47;;;6.34;53.48
38033;BME280;23841;48.524;1.342;2024-01-15T07:19:47;98438.84;;;6.34;53.45
38033;BME280;23841;48.524;1.342;2024-01-15T07:22:12;98437.06;;;6.35;53.52
38033;BME280;23841;48.524;1.342;2024-01-15T07:24:38;98439.69;;;6.35;53.38
38033;BME280;23841;48.524;1.342;2024-01-15T07:27:04;98443.22;;;6.35;53.39
38033;BME280;23841;48.524;1.342;2024-01-15T07:29:30;98436.22;;;6.34;53.52
38033;BME280;23841;48.524;1.342;2024-01-15T07:31:58;98443.22;;;6.35;53.56
38033;BME280;23841;48.524;1.342;2024-01-15T07:34:23;98447.63;;;6.36;53.46
38033;BME280;23841;48.524;1.342;2024-01-15T07:36:49;98432.75;;;6.32;53.57
38033;BME280;23841;48.524;1.342;2024-01-15T07:39:14;98448.50;;;6.35;53.32
38033;BME280;23841;48.524;1.342;2024-01-15T07:41:40;98452.91;;;6.35;53.59
38033;BME280;23841;48.524;1.342;2024-01-15T07:44:05;98464.34;;;6.35;53.55
38033;BME280;23841;48.524;1.342;2024-01-15T07:46:30;98467.88;;;6.34;53.41
38033;BME280;23841;48.524;1.342;2024-01-15T07:48:56;98470.50;;;6.34;53.48
38033;BME280;23841;48.524;1.342;2024-01-15T07:51:23;98470.53;;;6.32;53.55
38033;BME280;23841;48.524;1.342;2024-01-15T07:53:50;98479.28;;;6.35;53.49
38033;BME280;23841;48.524;1.342;2024-01-15T07:56:15;98477.53;;;6.35;53.67
38033;BME280;23841;48.524;1.342;2024-01-15T07:58:41;98474.00;;;6.35;53.56
38033;BME280;23841;48.524;1.342;2024-01-15T08:01:07;98490.72;;;6.35;53.58
38033;BME280;23841;48.524;1.342;2024-01-15T08:03:33;98488.94;;;6.36;53.62
38033;BME280;23841;48.524;1.342;2024-01-15T08:05:59;98493.31;;;6.37;53.70
38033;BME280;23841;48.524;1.342;2024-01-15T08:08:25;98493.34;;;6.35;53.65
38033;BME280;23841;48.524;1.342;2024-01-15T08:10:52;98502.09;;;6.37;53.54
38033;BME280;23841;48.524;1.342;2024-01-15T08:13:18;98493.38;;;6.34;53.68
38033;BME280;23841;48.524;1.342;2024-01-15T08:15:43;98497.75;;;6.36;53.52
38033;BME280;23841;48.524;1.342;2024-01-15T08:18:09;98503.00;;;6.36;53.70
38033;BME280;23841;48.524;1.342;2024-01-15T08:20:34;98512.69;;;6.36;53.73
38033;BME280;23841;48.524;1.342;2024-01-15T08:23:00;98512.69;;;6.36;53.96
38033;BME280;23841;48.524;1.342;2024-01-15T08:25:25;98523.19;;;6.37;53.64
38033;BME280;23841;48.524;1.342;2024-01-15T08:27:51;98524.97;;;6.37;53.59
38033;BME280;23841;48.524;1.342;2024-01-15T08:30:17;98517.94;;;6.36;53.76
38033;BME280;23841;48.524;1.342;2024-01-15T08:32:44;98531.13;;;6.37;53.57
38033;BME280;23841;48.524;1.342;2024-01-15T08:35:10;98531.13;;;6.37;53.67
38033;BME280;23841;48.524;1.342;2024-01-15T08:37:35;98524.97;;;6.37;53.75
38033;BME280;23841;48.524;1.342;2024-01-15T08:40:01;98537.31;;;6.36;53.73
38033;BME280;23841;48.524;1.342;2024-01-15T08:42:27;98538.16;;;6.37;53.74
38033;BME280;23841;48.524;1.342;2024-01-15T08:44:52;98538.16;;;6.37;53.82
38033;BME280;23841;48.524;1.342;2024-01-15T08:47:17;98545.22;;;6.36;53.72
38033;BME280;23841;48.524;1.342;2024-01-15T08:49:43;98546.94;;;6.37;53.88
38033;BME280;23841;48.524;1.342;2024-01-15T08:52:10;98539.03;;;6.37;53.75
38033;BME280;23841;48.524;1.342;2024-01-15T08:54:35;98536.38;;;6.37;53.80
38033;BME280;23841;48.524;1.342;2024-01-15T08:57:01;98541.66;;;6.37;53.80
38033;BME280;23841;48.524;1.342;2024-01-15T08:59:26;98545.16;;;6.39;53.91
38033;BME280;23841;48.524;1.342;2024-01-15T09:01:52;98547.81;;;6.39;53.89
38033;BME280;23841;48.524;1.342;2024-01-15T09:04:18;98539.88;;;6.39;53.88
38033;BME280;23841;48.524;1.342;2024-01-15T09:06:47;98539.00;;;6.40;53.72
38033;BME280;23841;48.524;1.342;2024-01-15T09:09:13;98539.88;;;6.39;53.83
38033;BME280;23841;48.524;1.342;2024-01-15T09:11:41;98539.13;;;6.32;53.96
38033;BME280;23841;48.524;1.342;2024-01-15T09:14:07;98552.19;;;6.40;53.94
38033;BME280;23841;48.524;1.342;2024-01-15T09:16:34;98561.00;;;6.39;53.79
38033;BME280;23841;48.524;1.342;2024-01-15T09:19:00;98553.06;;;6.39;53.93
38033;BME280;23841;48.524;1.342;2024-01-15T09:21:25;98557.47;;;6.39;53.95
38033;BME280;23841;48.524;1.342;2024-01-15T09:23:51;98553.06;;;6.39;53.83
38033;BME280;23841;48.524;1.342;2024-01-15T09:26:17;98555.72;;;6.39;53.89
38033;BME280;23841;48.524;1.342;2024-01-15T09:28:42;98561.00;;;6.39;53.86
38033;BME280;23841;48.524;1.342;2024-01-15T09:31:07;98559.25;;;6.38;53.92
38033;BME280;23841;48.524;1.342;2024-01-15T09:33:33;98568.94;;;6.38;54.11
38033;BME280;23841;48.524;1.342;2024-01-15T09:36:05;98569.78;;;6.38;54.08
38033;BME280;23841;48.524;1.342;2024-01-15T09:38:31;98566.28;;;6.39;53.98
38033;BME280;23841;48.524;1.342;2024-01-15T09:40:57;98566.31;;;6.38;54.05
38033;BME280;23841;48.524;1.342;2024-01-15T09:43:22;98570.66;;;6.39;53.93
38033;BME280;23841;48.524;1.342;2024-01-15T09:45:49;98567.19;;;6.37;54.10
38033;BME280;23841;48.524;1.342;2024-01-15T09:48:15;98555.72;;;6.39;54.00
38033;BME280;23841;48.524;1.342;2024-01-15T09:50:40;98568.88;;;6.41;54.08
38033;BME280;23841;48.524;1.342;2024-01-15T09:53:05;98560.09;;;6.40;54.02
38033;BME280;23841;48.524;1.342;2024-01-15T09:55:31;98571.53;;;6.39;54.04
38033;BME280;23841;48.524;1.342;2024-01-15T09:58:00;98568.03;;;6.40;54.21
38033;BME280;23841;48.524;1.342;2024-01-15T10:00:29;98568.03;;;6.40;54.15
38033;BME280;23841;48.524;1.342;2024-01-15T10:02:56;98561.94;;;6.35;54.14
38033;BME280;23841;48.524;1.342;2024-01-15T10:05:21;98571.53;;;6.39;54.25
38033;BME280;23841;48.524;1.342;2024-01-15T10:07:47;98568.88;;;6.41;54.15
38033;BME280;23841;48.524;1.342;2024-01-15T10:10:15;98579.44;;;6.41;54.21
38033;BME280;23841;48.524;1.342;2024-01-15T10:12:42;98575.91;;;6.42;54.26
38033;BME280;23841;48.524;1.342;2024-01-15T10:15:10;98578.53;;;6.42;54.30
38033;BME280;23841;48.524;1.342;2024-01-15T10:17:38;98577.69;;;6.40;54.25
38033;BME280;23841;48.524;1.342;2024-01-15T10:20:10;98576.00;;;6.36;54.35
38033;BME280;23841;48.524;1.342;2024-01-15T10:22:39;98586.47;;;6.42;54.37
38033;BME280;23841;48.524;1.342;2024-01-15T10:25:05;98587.31;;;6.42;54.35
38033;BME280;23841;48.524;1.342;2024-01-15T10:27:31;98590.84;;;6.41;54.44
38033;BME280;23841;48.524;1.342;2024-01-15T10:29:59;98589.09;;;6.42;54.26
38033;BME280;23841;48.524;1.342;2024-01-15T10:32:26;98582.06;;;6.41;54.20
38033;BME280;23841;48.524;1.342;2024-01-15T10:34:52;98583.84;;;6.40;54.15
38033;BME280;23841;48.524;1.342;2024-01-15T10:37:18;98597.88;;;6.42;54.41
38033;BME280;23841;48.524;1.342;2024-01-15T10:39:43;98594.34;;;6.43;54.43
38033;BME280;23841;48.524;1.342;2024-01-15T10:42:09;98599.63;;;6.43;54.38
38033;BME280;23841;48.524;1.342;2024-01-15T10:44:35;98597.00;;;6.42;54.50
38033;BME280;23841;48.524;1.342;2024-01-15T10:47:00;98601.38;;;6.44;54.28
38033;BME280;23841;48.524;1.342;2024-01-15T10:49:26;98601.38;;;6.44;54.42
38033;BME280;23841;48.524;1.342;2024-01-15T10:51:53;98601.38;;;6.44;54.47
38033;BME280;23841;48.524;1.342;2024-01-15T10:54:20;98609.25;;;6.46;54.45
38033;BME280;23841;48.524;1.342;2024-01-15T10:56:46;98608.38;;;6.45;54.70
38033;BME280;23841;48.524;1.342;2024-01-15T10:59:15;98610.97;;;6.47;54.71
38033;BME280;23841;48.524;1.342;2024-01-15T11:01:42;98611.94;;;6.44;54.81
38033;BME280;23841;48.524;1.342;2024-01-15T11:04:08;98613.59;;;6.48;54.99
38033;BME280;23841;48.524;1.342;2024-01-15T11:06:45;98596.13;;;6.41;55.21
38033;BME280;23841;48.524;1.342;2024-01-15T11:09:11;98596.94;;;6.46;55.25
38033;BME280;23841;48.524;1.342;2024-01-15T11:11:47;98606.53;;;6.51;55.21
38033;BME280;23841;48.524;1.342;2024-01-15T11:14:34;98603.00;;;6.52;55.09
38033;BME280;23841;48.524;1.342;2024-01-15T11:17:00;98606.53;;;6.51;55.40
38033;BME280;23841;48.524;1.342;2024-01-15T11:22:08;98603.00;;;6.52;55.23
38033;BME280;23841;48.524;1.342;2024-01-15T11:24:40;98598.59;;;6.52;55.51
38033;BME280;23841;48.524;1.342;2024-01-15T11:27:07;98600.34;;;6.53;55.38
38033;BME280;23841;48.524;1.342;2024-01-15T11:29:36;98600.31;;;6.55;55.43
38033;BME280;23841;48.524;1.342;2024-01-15T11:32:06;98605.56;;;6.56;55.46
38033;BME280;23841;48.524;1.342;2024-01-15T11:34:55;98602.91;;;6.58;55.52
38033;BME280;23841;48.524;1.342;2024-01-15T11:37:26;98600.31;;;6.55;55.66
38033;BME280;23841;48.524;1.342;2024-01-15T11:39:53;98594.16;;;6.53;55.70
38033;BME280;23841;48.524;1.342;2024-01-15T11:42:21;98609.94;;;6.57;55.59
38033;BME280;23841;48.524;1.342;2024-01-15T11:44:47;98605.53;;;6.58;55.71
38033;BME280;23841;48.524;1.342;2024-01-15T11:47:13;98601.16;;;6.57;55.78
38033;BME280;23841;48.524;1.342;2024-01-15T11:50:01;98600.22;;;6.59;55.72
38033;BME280;23841;48.524;1.342;2024-01-15T11:52:32;98590.56;;;6.60;55.78
38033;BME280;23841;48.524;1.342;2024-01-15T11:57:41;98592.25;;;6.62;55.96
38033;BME280;23841;48.524;1.342;2024-01-15T12:00:09;98587.88;;;6.63;56.14
38033;BME280;23841;48.524;1.342;2024-01-15T12:02:35;98591.34;;;6.65;56.15
38033;BME280;23841;48.524;1.342;2024-01-15T12:05:01;98584.31;;;6.65;56.26
38033;BME280;23841;48.524;1.342;2024-01-15T12:07:26;98586.03;;;6.66;56.23
38033;BME280;23841;48.524;1.342;2024-01-15T12:09:52;98586.03;;;6.66;56.14
38033;BME280;23841;48.524;1.342;2024-01-15T12:12:25;98589.53;;;6.69;56.36
38033;BME280;23841;48.524;1.342;2024-01-15T12:14:53;98591.31;;;6.66;56.52
38033;BME280;23841;48.524;1.342;2024-01-15T12:17:18;98600.06;;;6.69;56.19
38033;BME280;23841;48.524;1.342;2024-01-15T12:19:44;98591.31;;;6.66;56.15
38033;BME280;23841;48.524;1.342;2024-01-15T12:22:09;98593.13;;;6.64;56.26
38033;BME280;23841;48.524;1.342;2024-01-15T12:24:35;98602.72;;;6.69;56.22
38033;BME280;23841;48.524;1.342;2024-01-15T12:27:01;98600.94;;;6.69;55.93
38033;BME280;23841;48.524;1.342;2024-01-15T12:29:27;98605.34;;;6.69;56.01
38033;BME280;23841;48.524;1.342;2024-01-15T12:31:53;98600.09;;;6.67;55.96
38033;BME280;23841;48.524;1.342;2024-01-15T12:34:19;98605.34;;;6.69;55.88
38033;BME280;23841;48.524;1.342;2024-01-15T12:36:48;98602.75;;;6.67;55.77
38033;BME280;23841;48.524;1.342;2024-01-15T12:39:13;98596.66;;;6.62;55.64
38033;BME280;23841;48.524;1.342;2024-01-15T12:41:39;98611.63;;;6.63;54.96
38033;BME280;23841;48.524;1.342;2024-01-15T12:44:04;98600.25;;;6.58;54.97
38033;BME280;23841;48.524;1.342;2024-01-15T12:46:30;98594.16;;;6.53;54.83
38033;BME280;23841;48.524;1.342;2024-01-15T12:48:56;98606.41;;;6.60;55.10
38033;BME280;23841;48.524;1.342;2024-01-15T12:51:25;98604.66;;;6.59;54.73
38033;BME280;23841;48.524;1.342;2024-01-15T12:53:51;98599.38;;;6.59;54.82
38033;BME280;23841;48.524;1.342;2024-01-15T12:56:17;98593.22;;;6.57;54.92
38033;BME280;23841;48.524;1.342;2024-01-15T12:58:42;98596.69;;;6.60;54.83
38033;BME280;23841;48.524;1.342;2024-01-15T13:01:08;98596.66;;;6.62;55.06
38033;BME280;23841;48.524;1.342;2024-01-15T13:03:33;98601.97;;;6.60;55.06
38033;BME280;23841;48.524;1.342;2024-01-15T13:05:59;98600.19;;;6.61;54.93
38033;BME280;23841;48.524;1.342;2024-01-15T13:08:24;98592.34;;;6.58;54.28
38033;BME280;23841;48.524;1.342;2024-01-15T13:10:52;98582.84;;;6.47;54.18